TAP192 LPPR-LPPT
Flight info
| Callsign | TAP192 |
|---|---|
| Flight time | N/A |
| Altitude | 31000 |
| Route | MANIK DCT ABRIL DCT XAMAX |
| Aircraft | A320/M-SDE3FGHIRWY/LB1 |
Departure
| Time | N/A |
|---|---|
| Airport | Francisco de Sá Carneiro Airport (LPPR) |
Arrival
| Time | 2026-05-08 01:51 |
|---|---|
| Airport | Lisbon Humberto Delgado Airport (LPPT) |
| Time | Latitude | Longitude | Altitude | Speed | Heading |
|---|---|---|---|---|---|
| 2026-05-08 01:24 | 40.47389 | -8.58915 | 23336 ft | 478 kts | 175° |
| 2026-05-08 01:24 | 40.44048 | -8.58541 | 23337 ft | 485 kts | 175° |
| 2026-05-08 01:24 | 40.40662 | -8.58161 | 23352 ft | 492 kts | 175° |
| 2026-05-08 01:25 | 40.37343 | -8.57786 | 24645 ft | 464 kts | 175° |
| 2026-05-08 01:25 | 40.34225 | -8.57445 | 25922 ft | 436 kts | 175° |
| 2026-05-08 01:25 | 40.31276 | -8.57094 | 26267 ft | 416 kts | 174° |
| 2026-05-08 01:25 | 40.28443 | -8.56733 | 26486 ft | 405 kts | 174° |
| 2026-05-08 01:26 | 40.25620 | -8.56370 | 25079 ft | 412 kts | 174° |
| 2026-05-08 01:26 | 40.22682 | -8.55997 | 24047 ft | 435 kts | 174° |
| 2026-05-08 01:26 | 40.19631 | -8.55619 | 23568 ft | 444 kts | 174° |
| 2026-05-08 01:26 | 40.16539 | -8.55243 | 23347 ft | 450 kts | 174° |
| 2026-05-08 01:27 | 40.13406 | -8.54864 | 23181 ft | 453 kts | 175° |
| 2026-05-08 01:27 | 40.10265 | -8.54486 | 23221 ft | 454 kts | 175° |
| 2026-05-08 01:27 | 40.07157 | -8.54115 | 23220 ft | 454 kts | 175° |
| 2026-05-08 01:27 | 40.04009 | -8.53739 | 23220 ft | 454 kts | 175° |
| 2026-05-08 01:28 | 40.00865 | -8.53383 | 23220 ft | 454 kts | 175° |
| 2026-05-08 01:28 | 39.97700 | -8.53087 | 23219 ft | 454 kts | 176° |
| 2026-05-08 01:28 | 39.94545 | -8.52836 | 23221 ft | 454 kts | 176° |
| 2026-05-08 01:28 | 39.92413 | -8.52678 | 23220 ft | 454 kts | 177° |
| 2026-05-08 01:29 | 39.89253 | -8.52448 | 23220 ft | 454 kts | 177° |
| 2026-05-08 01:29 | 39.86109 | -8.52578 | 23214 ft | 454 kts | 189° |
| 2026-05-08 01:29 | 39.83082 | -8.53750 | 23213 ft | 453 kts | 205° |
| 2026-05-08 01:29 | 39.80362 | -8.55807 | 23213 ft | 453 kts | 213° |
| 2026-05-08 01:30 | 39.77750 | -8.57992 | 23211 ft | 453 kts | 213° |
| 2026-05-08 01:30 | 39.75103 | -8.60220 | 23210 ft | 453 kts | 213° |
| 2026-05-08 01:30 | 39.72459 | -8.62447 | 23208 ft | 453 kts | 213° |
| 2026-05-08 01:30 | 39.69814 | -8.64673 | 23208 ft | 453 kts | 213° |
| 2026-05-08 01:31 | 39.67161 | -8.66899 | 23208 ft | 453 kts | 213° |
| 2026-05-08 01:31 | 39.64513 | -8.69115 | 23208 ft | 453 kts | 213° |
| 2026-05-08 01:31 | 39.61859 | -8.71329 | 23208 ft | 453 kts | 213° |
| 2026-05-08 01:31 | 39.59208 | -8.73541 | 23208 ft | 453 kts | 213° |
| 2026-05-08 01:32 | 39.56557 | -8.75750 | 23208 ft | 453 kts | 213° |
| 2026-05-08 01:32 | 39.53901 | -8.77961 | 23209 ft | 453 kts | 213° |
| 2026-05-08 01:32 | 39.51281 | -8.80139 | 23208 ft | 453 kts | 213° |
| 2026-05-08 01:32 | 39.48631 | -8.82342 | 23208 ft | 453 kts | 213° |
| 2026-05-08 01:33 | 39.45982 | -8.84544 | 23209 ft | 453 kts | 213° |
| 2026-05-08 01:33 | 39.43291 | -8.86778 | 23209 ft | 453 kts | 213° |
| 2026-05-08 01:33 | 39.40677 | -8.88948 | 23209 ft | 453 kts | 213° |
| 2026-05-08 01:33 | 39.38019 | -8.91152 | 23208 ft | 453 kts | 213° |
| 2026-05-08 01:34 | 39.35365 | -8.93352 | 23209 ft | 453 kts | 213° |
| 2026-05-08 01:34 | 39.32711 | -8.95546 | 23209 ft | 453 kts | 213° |
| 2026-05-08 01:34 | 39.30057 | -8.97736 | 23209 ft | 453 kts | 213° |
| 2026-05-08 01:34 | 39.27398 | -8.99929 | 23209 ft | 453 kts | 213° |
| 2026-05-08 01:35 | 39.24745 | -9.02119 | 23209 ft | 453 kts | 213° |
| 2026-05-08 01:35 | 39.22085 | -9.04310 | 23206 ft | 453 kts | 213° |
| 2026-05-08 01:35 | 39.19468 | -9.06459 | 22971 ft | 438 kts | 213° |
| 2026-05-08 01:35 | 39.16941 | -9.08536 | 22720 ft | 424 kts | 213° |
| 2026-05-08 01:36 | 39.14494 | -9.10550 | 22459 ft | 410 kts | 213° |
| 2026-05-08 01:36 | 39.12129 | -9.12496 | 22298 ft | 395 kts | 213° |
| 2026-05-08 01:36 | 39.09831 | -9.14385 | 21853 ft | 389 kts | 213° |
| 2026-05-08 01:36 | 39.07597 | -9.16219 | 21161 ft | 382 kts | 213° |
| 2026-05-08 01:37 | 39.05369 | -9.18043 | 20256 ft | 378 kts | 213° |
| 2026-05-08 01:37 | 39.03165 | -9.19846 | 19360 ft | 373 kts | 213° |
| 2026-05-08 01:37 | 39.00992 | -9.21625 | 18486 ft | 368 kts | 213° |
| 2026-05-08 01:37 | 38.98848 | -9.23379 | 17624 ft | 363 kts | 213° |
| 2026-05-08 01:38 | 38.96728 | -9.25112 | 16880 ft | 356 kts | 213° |
| 2026-05-08 01:38 | 38.94661 | -9.26800 | 16259 ft | 346 kts | 213° |
| 2026-05-08 01:38 | 38.92652 | -9.28438 | 15681 ft | 342 kts | 213° |
| 2026-05-08 01:38 | 38.90632 | -9.30083 | 15090 ft | 345 kts | 213° |
| 2026-05-08 01:39 | 38.88596 | -9.31740 | 14499 ft | 347 kts | 213° |
| 2026-05-08 01:39 | 38.86553 | -9.33401 | 14023 ft | 345 kts | 213° |
| 2026-05-08 01:39 | 38.84545 | -9.35032 | 13234 ft | 339 kts | 213° |
| 2026-05-08 01:39 | 38.82567 | -9.36638 | 12539 ft | 332 kts | 213° |
| 2026-05-08 01:40 | 38.80675 | -9.38172 | 11998 ft | 321 kts | 212° |
| 2026-05-08 01:40 | 38.78818 | -9.39679 | 11463 ft | 311 kts | 213° |
| 2026-05-08 01:40 | 38.77010 | -9.41146 | 10918 ft | 303 kts | 213° |
| 2026-05-08 01:40 | 38.75245 | -9.42578 | 10445 ft | 297 kts | 213° |
| 2026-05-08 01:41 | 38.73521 | -9.43976 | 10071 ft | 289 kts | 213° |
| 2026-05-08 01:41 | 38.71824 | -9.45353 | 9934 ft | 288 kts | 213° |
| 2026-05-08 01:41 | 38.70130 | -9.46726 | 9818 ft | 288 kts | 213° |
| 2026-05-08 01:41 | 38.68441 | -9.48092 | 9688 ft | 287 kts | 213° |
| 2026-05-08 01:42 | 38.66726 | -9.49477 | 9124 ft | 294 kts | 213° |
| 2026-05-08 01:42 | 38.65023 | -9.50854 | 8917 ft | 282 kts | 213° |
| 2026-05-08 01:42 | 38.63332 | -9.51890 | 8758 ft | 261 kts | 193° |
| 2026-05-08 01:42 | 38.61585 | -9.51943 | 8353 ft | 253 kts | 166° |
| 2026-05-08 01:43 | 38.60041 | -9.51018 | 8072 ft | 246 kts | 141° |
| 2026-05-08 01:43 | 38.58952 | -9.49359 | 7639 ft | 244 kts | 115° |
| 2026-05-08 01:43 | 38.58497 | -9.47282 | 7250 ft | 245 kts | 97° |
| 2026-05-08 01:43 | 38.58266 | -9.45109 | 6867 ft | 248 kts | 97° |
| 2026-05-08 01:44 | 38.58032 | -9.42944 | 6580 ft | 245 kts | 97° |
| 2026-05-08 01:44 | 38.57796 | -9.40773 | 6266 ft | 245 kts | 97° |
| 2026-05-08 01:44 | 38.57563 | -9.38634 | 5980 ft | 243 kts | 97° |
| 2026-05-08 01:44 | 38.57331 | -9.36491 | 5627 ft | 244 kts | 97° |
| 2026-05-08 01:45 | 38.57098 | -9.34360 | 5420 ft | 239 kts | 97° |
| 2026-05-08 01:45 | 38.56885 | -9.32297 | 5288 ft | 230 kts | 92° |
| 2026-05-08 01:45 | 38.57101 | -9.30327 | 5128 ft | 222 kts | 69° |
| 2026-05-08 01:45 | 38.57681 | -9.28500 | 4861 ft | 221 kts | 66° |
| 2026-05-08 01:46 | 38.58267 | -9.26687 | 4606 ft | 220 kts | 66° |
| 2026-05-08 01:46 | 38.58855 | -9.24920 | 4361 ft | 209 kts | 60° |
| 2026-05-08 01:46 | 38.59736 | -9.23576 | 4304 ft | 196 kts | 36° |
| 2026-05-08 01:46 | 38.60940 | -9.22754 | 4035 ft | 197 kts | 22° |
| 2026-05-08 01:47 | 38.62202 | -9.22084 | 3532 ft | 194 kts | 21° |
| 2026-05-08 01:47 | 38.63416 | -9.21443 | 3175 ft | 184 kts | 22° |
| 2026-05-08 01:47 | 38.64554 | -9.20839 | 2907 ft | 171 kts | 22° |
| 2026-05-08 01:48 | 38.66610 | -9.19744 | 2468 ft | 151 kts | 22° |
| 2026-05-08 01:48 | 38.67564 | -9.19236 | 2271 ft | 147 kts | 22° |
| 2026-05-08 01:48 | 38.68500 | -9.18737 | 2076 ft | 145 kts | 22° |
| 2026-05-08 01:48 | 38.69422 | -9.18245 | 1896 ft | 140 kts | 22° |
| 2026-05-08 01:49 | 38.70313 | -9.17770 | 1708 ft | 137 kts | 21° |
| 2026-05-08 01:49 | 38.71192 | -9.17301 | 1520 ft | 136 kts | 21° |
| 2026-05-08 01:49 | 38.72065 | -9.16836 | 1345 ft | 136 kts | 22° |
| 2026-05-08 01:49 | 38.72936 | -9.16369 | 1153 ft | 135 kts | 22° |
| 2026-05-08 01:50 | 38.73802 | -9.15905 | 986 ft | 135 kts | 21° |
| 2026-05-08 01:50 | 38.74655 | -9.15448 | 805 ft | 135 kts | 21° |
| 2026-05-08 01:50 | 38.75520 | -9.14985 | 616 ft | 135 kts | 21° |
| 2026-05-08 01:50 | 38.76384 | -9.14525 | 426 ft | 134 kts | 21° |
| 2026-05-08 01:51 | 38.77229 | -9.14066 | 363 ft | 123 kts | 22° |
| 2026-05-08 01:51 | 38.77890 | -9.13723 | 365 ft | 78 kts | 22° |
| 2026-05-08 01:51 | 38.78215 | -9.13540 | 370 ft | 29 kts | 32° |
| 2026-05-08 01:51 | 38.78357 | -9.13374 | 363 ft | 27 kts | 47° |
| 2026-05-08 01:52 | 38.78335 | -9.13262 | 359 ft | 16 kts | 182° |
| 2026-05-08 01:52 | 38.78228 | -9.13313 | 358 ft | 17 kts | 202° |
| 2026-05-08 01:52 | 38.78116 | -9.13369 | 361 ft | 19 kts | 201° |